createdAt,value
2022-10-19T00:02:21.149Z,6.93
2022-10-19T00:04:47.603Z,8.43
2022-10-19T00:07:13.934Z,8.97
2022-10-19T00:09:40.350Z,3.63
2022-10-19T00:12:06.773Z,5.80
2022-10-19T00:14:33.380Z,13.10
2022-10-19T00:16:59.786Z,8.90
2022-10-19T00:19:27.922Z,8.57
2022-10-19T00:21:54.791Z,6.73
2022-10-19T00:24:21.423Z,14.87
2022-10-19T00:26:47.840Z,8.50
2022-10-19T00:29:14.703Z,13.77
2022-10-19T00:31:41.554Z,6.77
2022-10-19T00:34:08.051Z,6.70
2022-10-19T00:36:36.580Z,10.30
2022-10-19T00:39:04.127Z,12.13
2022-10-19T00:41:32.097Z,10.67
2022-10-19T00:44:03.560Z,10.57
2022-10-19T00:46:31.979Z,8.60
2022-10-19T00:49:08.431Z,4.90
2022-10-19T00:51:39.313Z,4.80
2022-10-19T00:54:06.581Z,8.10
2022-10-19T00:56:33.853Z,4.87
2022-10-19T00:59:02.698Z,6.90
2022-10-19T01:01:29.212Z,9.47
2022-10-19T01:03:55.650Z,7.63
2022-10-19T01:06:23.350Z,8.77
2022-10-19T01:08:49.702Z,9.57
2022-10-19T01:11:42.508Z,5.13
2022-10-19T01:14:08.871Z,6.50
2022-10-19T01:16:47.147Z,5.87
2022-10-19T01:19:27.174Z,7.47
2022-10-19T01:22:06.163Z,6.70
2022-10-19T01:24:34.813Z,6.83
2022-10-19T01:27:22.076Z,5.77
2022-10-19T01:29:55.435Z,8.97
2022-10-19T01:32:27.611Z,7.20
2022-10-19T01:35:01.456Z,5.93
2022-10-19T01:37:37.901Z,4.50
2022-10-19T01:40:07.614Z,6.97
2022-10-19T01:42:42.170Z,5.03
2022-10-19T01:45:15.449Z,5.97
2022-10-19T01:47:47.109Z,5.10
2022-10-19T01:50:16.897Z,7.33
2022-10-19T01:52:43.290Z,11.63
2022-10-19T01:55:11.171Z,7.10
2022-10-19T01:57:39.700Z,7.53
2022-10-19T02:00:07.647Z,5.10
2022-10-19T02:02:36.541Z,17.63
2022-10-19T02:05:04.230Z,8.10
2022-10-19T02:07:30.981Z,6.50
2022-10-19T02:09:57.401Z,6.70
2022-10-19T02:12:25.081Z,10.93
2022-10-19T02:14:53.477Z,6.53
2022-10-19T02:17:22.346Z,7.17
2022-10-19T02:19:48.819Z,5.90
2022-10-19T02:22:15.168Z,12.60
2022-10-19T02:24:41.515Z,9.03
2022-10-19T02:27:08.252Z,10.53
2022-10-19T02:29:36.061Z,6.20
2022-10-19T02:32:02.663Z,6.50
2022-10-19T02:34:29.574Z,9.27
2022-10-19T02:36:55.994Z,7.13
2022-10-19T02:39:22.419Z,4.67
2022-10-19T02:41:52.094Z,10.93
2022-10-19T02:44:20.892Z,5.40
2022-10-19T02:46:52.209Z,4.80
2022-10-19T02:49:18.841Z,14.07
2022-10-19T02:52:01.255Z,13.97
2022-10-19T02:54:28.034Z,6.13
2022-10-19T02:56:54.578Z,6.20
2022-10-19T02:59:21.015Z,7.53
2022-10-19T03:01:47.339Z,7.80
2022-10-19T03:04:13.766Z,10.33
2022-10-19T03:06:40.121Z,6.03
2022-10-19T03:09:06.582Z,8.47
2022-10-19T03:11:32.931Z,18.00
2022-10-19T03:13:59.273Z,7.10
2022-10-19T03:16:25.652Z,5.43
2022-10-19T03:18:52.050Z,4.37
2022-10-19T03:21:18.814Z,8.30
2022-10-19T03:23:45.201Z,3.80
2022-10-19T03:26:15.873Z,10.03
2022-10-19T03:28:42.311Z,5.20
2022-10-19T03:31:09.052Z,5.30
2022-10-19T03:33:35.387Z,10.03
2022-10-19T03:36:15.169Z,3.87
2022-10-19T03:38:41.510Z,3.33
2022-10-19T03:41:08.787Z,6.73
2022-10-19T03:43:35.275Z,6.87
2022-10-19T03:46:01.762Z,9.87
2022-10-19T03:48:28.254Z,29.00
2022-10-19T03:51:08.833Z,17.77
2022-10-19T03:53:35.783Z,8.83
2022-10-19T03:56:03.420Z,6.73
2022-10-19T03:58:29.889Z,5.70
2022-10-19T04:00:56.294Z,8.60
2022-10-19T04:03:22.774Z,11.07
2022-10-19T04:05:49.178Z,5.50
2022-10-19T04:08:15.749Z,5.37
2022-10-19T04:10:42.100Z,8.30
2022-10-19T04:13:08.452Z,11.40
2022-10-19T04:15:35.530Z,6.00
2022-10-19T04:18:02.037Z,9.33
2022-10-19T04:20:28.355Z,7.73
2022-10-19T04:22:54.699Z,6.90
2022-10-19T04:25:21.074Z,7.37
2022-10-19T04:27:47.408Z,7.73
2022-10-19T04:30:13.733Z,6.73
2022-10-19T04:32:40.082Z,10.23
2022-10-19T04:35:06.945Z,7.63
2022-10-19T04:37:33.452Z,9.20
2022-10-19T04:40:00.019Z,10.30
2022-10-19T04:42:26.374Z,9.10
2022-10-19T04:44:52.728Z,6.33
2022-10-19T04:47:19.190Z,5.97
2022-10-19T04:49:45.512Z,8.83
2022-10-19T04:52:11.858Z,8.87
2022-10-19T04:54:38.199Z,6.83
2022-10-19T04:57:04.542Z,7.50
2022-10-19T04:59:30.858Z,9.30
2022-10-19T05:01:57.174Z,8.87
2022-10-19T05:04:23.530Z,7.73
2022-10-19T05:06:49.851Z,7.63
2022-10-19T05:09:17.165Z,6.13
2022-10-19T05:11:43.502Z,7.87
2022-10-19T05:14:09.931Z,10.53
2022-10-19T05:16:36.532Z,10.47
2022-10-19T05:19:03.153Z,7.53
2022-10-19T05:21:29.842Z,13.57
2022-10-19T05:23:56.815Z,5.67
2022-10-19T05:26:24.235Z,7.00
2022-10-19T05:28:51.769Z,9.27
2022-10-19T05:31:19.297Z,4.43
2022-10-19T05:33:45.751Z,7.53
2022-10-19T05:36:16.973Z,12.03
2022-10-19T05:38:43.975Z,9.07
2022-10-19T05:41:10.396Z,6.80
2022-10-19T05:43:36.814Z,9.60
2022-10-19T05:46:07.517Z,13.70
2022-10-19T05:48:34.188Z,12.00
2022-10-19T05:51:01.363Z,10.37
2022-10-19T05:53:28.399Z,8.90
2022-10-19T05:55:55.092Z,8.60
2022-10-19T05:58:21.633Z,6.17
2022-10-19T06:00:58.143Z,11.27
2022-10-19T06:03:25.453Z,12.47
2022-10-19T06:05:52.614Z,9.67
2022-10-19T06:08:19.464Z,9.93
2022-10-19T06:10:46.342Z,10.67
2022-10-19T06:13:13.762Z,8.23
2022-10-19T06:15:40.381Z,11.83
2022-10-19T06:18:10.901Z,10.30
2022-10-19T06:20:38.318Z,9.33
2022-10-19T06:23:05.767Z,14.77
2022-10-19T06:25:32.716Z,8.27
2022-10-19T06:27:59.399Z,13.40
2022-10-19T06:30:25.939Z,10.53
2022-10-19T06:32:52.464Z,10.53
2022-10-19T06:35:19.308Z,14.33
2022-10-19T06:37:45.651Z,12.63
2022-10-19T06:40:12.258Z,15.63
2022-10-19T06:42:41.564Z,13.47
2022-10-19T06:45:11.302Z,10.60
2022-10-19T06:47:38.173Z,14.50
2022-10-19T06:50:05.863Z,14.67
2022-10-19T06:52:33.114Z,11.07
2022-10-19T06:54:59.817Z,16.30
2022-10-19T06:57:26.242Z,19.73
2022-10-19T06:59:53.691Z,11.13
2022-10-19T07:02:20.193Z,9.67
2022-10-19T07:04:46.559Z,10.97
2022-10-19T07:07:12.904Z,10.90
2022-10-19T07:09:39.230Z,12.03
2022-10-19T07:12:05.779Z,13.43
2022-10-19T07:14:38.859Z,17.03
2022-10-19T07:17:09.984Z,18.30
2022-10-19T07:19:36.406Z,10.50
2022-10-19T07:22:02.804Z,14.50
2022-10-19T07:24:29.458Z,15.20
2022-10-19T07:26:56.101Z,13.20
2022-10-19T07:29:22.930Z,14.30
2022-10-19T07:31:49.328Z,18.93
2022-10-19T07:34:16.311Z,14.33
2022-10-19T07:36:45.273Z,10.30
2022-10-19T07:39:12.522Z,14.60
2022-10-19T07:41:39.076Z,11.47
2022-10-19T07:44:06.007Z,9.47
2022-10-19T07:46:33.812Z,15.77
2022-10-19T07:49:00.396Z,12.20
2022-10-19T07:51:27.070Z,9.57
2022-10-19T07:53:53.501Z,13.90
2022-10-19T07:56:21.548Z,11.63
2022-10-19T07:58:48.028Z,14.30
2022-10-19T08:01:15.841Z,10.50
2022-10-19T08:04:37.619Z,13.83
2022-10-19T08:06:28.807Z,11.30
2022-10-19T08:08:55.626Z,8.70
2022-10-19T08:11:23.396Z,10.13
2022-10-19T08:13:50.103Z,9.57
2022-10-19T08:16:28.282Z,11.90
2022-10-19T08:18:58.842Z,10.00
2022-10-19T08:21:26.338Z,11.73
2022-10-19T08:23:52.658Z,11.07
2022-10-19T08:26:19.222Z,12.70
2022-10-19T08:28:45.670Z,7.60
2022-10-19T08:31:16.352Z,11.03
2022-10-19T08:33:43.155Z,8.03
2022-10-19T08:36:10.147Z,12.60
2022-10-19T08:38:37.246Z,8.90
2022-10-19T08:41:23.136Z,10.50
2022-10-19T08:44:06.345Z,5.07
2022-10-19T08:46:54.495Z,5.93
2022-10-19T08:49:23.498Z,9.47
2022-10-19T08:51:53.367Z,8.60
2022-10-19T08:54:19.769Z,8.53
2022-10-19T08:56:51.372Z,9.83
2022-10-19T08:59:34.335Z,7.27
2022-10-19T09:02:20.932Z,9.07
2022-10-19T09:04:49.587Z,9.73
2022-10-19T09:07:29.623Z,6.27
2022-10-19T09:10:17.173Z,8.30
2022-10-19T09:13:01.150Z,8.67
2022-10-19T09:15:33.540Z,9.90
2022-10-19T09:18:00.950Z,7.90
2022-10-19T09:20:32.624Z,12.07
2022-10-19T09:23:25.167Z,7.70
2022-10-19T09:25:52.307Z,10.57
2022-10-19T09:28:31.410Z,10.03
2022-10-19T09:31:03.194Z,9.00
2022-10-19T09:33:37.518Z,11.57
2022-10-19T09:36:05.107Z,13.43
2022-10-19T09:38:31.814Z,13.60
2022-10-19T09:40:59.212Z,10.67
2022-10-19T09:43:27.162Z,9.40
2022-10-19T09:46:11.709Z,8.00
2022-10-19T09:48:49.120Z,7.53
2022-10-19T09:51:16.371Z,9.43
2022-10-19T09:53:46.559Z,11.87
2022-10-19T09:56:19.166Z,7.70
2022-10-19T09:58:50.000Z,8.03
2022-10-19T10:01:39.909Z,11.63
2022-10-19T10:04:13.479Z,7.33
2022-10-19T10:06:40.417Z,8.82
2022-10-19T10:09:06.946Z,8.50
2022-10-19T10:11:38.152Z,5.43
2022-10-19T10:14:09.871Z,6.85
2022-10-19T10:16:36.567Z,6.63
2022-10-19T10:19:05.652Z,10.67
2022-10-19T10:21:47.969Z,7.63
2022-10-19T10:24:14.375Z,7.77
2022-10-19T10:26:42.533Z,9.27
2022-10-19T10:29:22.207Z,9.30
2022-10-19T10:31:50.619Z,11.70
2022-10-19T10:34:49.500Z,9.63
2022-10-19T10:37:23.575Z,9.57
2022-10-19T10:39:55.786Z,7.60
2022-10-19T10:42:50.392Z,6.33
2022-10-19T10:45:19.807Z,6.40
2022-10-19T10:47:48.429Z,5.50
2022-10-19T10:50:22.764Z,6.03
2022-10-19T10:53:01.970Z,5.90
2022-10-19T10:55:29.118Z,6.93
2022-10-19T10:58:14.127Z,8.70
2022-10-19T11:00:40.898Z,8.53
2022-10-19T11:03:22.126Z,10.53
2022-10-19T11:05:51.499Z,8.80
2022-10-19T11:08:20.740Z,8.70
2022-10-19T11:10:54.190Z,10.33
2022-10-19T11:13:39.362Z,6.37
2022-10-19T11:16:19.122Z,5.60
2022-10-19T11:19:04.091Z,7.10
2022-10-19T11:21:53.002Z,4.47
2022-10-19T11:24:25.817Z,5.63
2022-10-19T11:27:03.039Z,5.80
2022-10-19T11:29:29.418Z,3.60
2022-10-19T11:31:55.952Z,4.57
2022-10-19T11:34:37.748Z,9.13
2022-10-19T11:37:10.334Z,8.13
2022-10-19T11:39:46.219Z,6.50
2022-10-19T11:42:12.567Z,8.67
2022-10-19T11:44:44.355Z,6.83
2022-10-19T11:47:17.435Z,4.23
2022-10-19T11:49:59.409Z,9.33
2022-10-19T11:52:31.808Z,6.00
2022-10-19T11:54:58.253Z,8.70
2022-10-19T11:57:30.654Z,8.60
2022-10-19T12:00:15.166Z,6.47
2022-10-19T12:03:08.496Z,4.90
2022-10-19T12:05:40.004Z,5.63
2022-10-19T12:08:25.597Z,4.87
2022-10-19T12:11:16.760Z,6.20
2022-10-19T12:13:56.523Z,5.30
2022-10-19T12:16:26.004Z,5.13
2022-10-19T12:18:55.407Z,4.60
2022-10-19T12:21:24.838Z,6.87
2022-10-19T12:23:51.758Z,8.70
2022-10-19T12:26:20.132Z,6.03
2022-10-19T12:28:55.665Z,5.90
2022-10-19T12:31:23.682Z,5.60
2022-10-19T12:34:08.684Z,4.87
2022-10-19T12:36:40.520Z,2.27
2022-10-19T12:39:12.663Z,1.83
2022-10-19T12:41:44.853Z,3.77
2022-10-19T12:44:38.110Z,4.07
2022-10-19T12:47:10.706Z,5.53
2022-10-19T12:49:43.129Z,2.93
2022-10-19T12:52:09.883Z,6.30
2022-10-19T12:54:37.940Z,27.43
2022-10-19T12:57:22.681Z,6.30
2022-10-19T12:59:59.483Z,4.60
2022-10-19T13:02:34.482Z,6.13
2022-10-19T13:05:01.379Z,2.30
2022-10-19T13:07:29.757Z,9.80
2022-10-19T13:10:04.751Z,4.67
2022-10-19T13:12:41.844Z,3.73
2022-10-19T13:15:28.230Z,7.53
2022-10-19T13:17:54.605Z,3.03
2022-10-19T13:20:20.989Z,3.90
2022-10-19T13:22:49.259Z,5.20
2022-10-19T13:25:21.597Z,4.00
2022-10-19T13:27:48.335Z,3.70
2022-10-19T13:30:33.751Z,5.20
2022-10-19T13:33:00.170Z,11.37
2022-10-19T13:35:30.723Z,9.27
2022-10-19T13:38:09.203Z,5.37
2022-10-19T13:40:41.270Z,4.33
2022-10-19T13:43:18.096Z,8.80
2022-10-19T13:45:53.076Z,4.37
2022-10-19T13:48:24.331Z,6.03
2022-10-19T13:51:00.221Z,3.50
2022-10-19T13:53:35.521Z,2.63
2022-10-19T13:56:11.035Z,3.03
2022-10-19T13:58:43.247Z,2.70
2022-10-19T14:01:17.757Z,4.30
2022-10-19T14:04:02.820Z,2.53
2022-10-19T14:06:29.144Z,6.10
2022-10-19T14:09:18.729Z,2.97
2022-10-19T14:11:46.228Z,3.10
2022-10-19T14:14:23.840Z,5.63
2022-10-19T14:16:57.096Z,2.27
2022-10-19T14:19:28.904Z,3.80
2022-10-19T14:22:16.886Z,3.77
2022-10-19T14:24:43.346Z,4.63
2022-10-19T14:27:15.015Z,2.87
2022-10-19T14:29:48.837Z,2.77
2022-10-19T14:32:15.633Z,4.17
2022-10-19T14:34:42.575Z,2.73
2022-10-19T14:37:25.728Z,5.07
2022-10-19T14:39:58.037Z,3.50
2022-10-19T14:42:24.459Z,1.83
2022-10-19T14:44:50.797Z,2.43
2022-10-19T14:47:18.914Z,3.10
2022-10-19T14:49:45.418Z,1.73
2022-10-19T14:52:14.230Z,2.53
2022-10-19T14:54:43.053Z,2.20
2022-10-19T14:57:15.020Z,3.37
2022-10-19T14:59:47.706Z,5.60
2022-10-19T15:02:16.902Z,2.63
2022-10-19T15:04:46.061Z,3.47
2022-10-19T15:07:18.290Z,2.53
2022-10-19T15:09:49.421Z,2.93
2022-10-19T15:12:18.155Z,2.77
2022-10-19T15:14:45.665Z,2.07
2022-10-19T15:17:31.356Z,3.30
2022-10-19T15:20:00.916Z,3.33
2022-10-19T15:22:30.574Z,1.37
2022-10-19T15:24:56.990Z,5.23
2022-10-19T15:27:29.947Z,1.60
2022-10-19T15:29:57.086Z,1.40
2022-10-19T15:32:24.743Z,1.47
2022-10-19T15:34:51.493Z,1.90
2022-10-19T15:37:22.545Z,3.83
2022-10-19T15:39:49.718Z,3.27
2022-10-19T15:42:22.844Z,1.20
2022-10-19T15:44:49.570Z,2.23
2022-10-19T15:47:15.874Z,2.73
2022-10-19T15:49:42.210Z,3.93
2022-10-19T15:52:22.156Z,2.43
2022-10-19T15:54:49.271Z,4.33
2022-10-19T15:57:38.345Z,3.10
2022-10-19T16:00:08.334Z,7.47
2022-10-19T16:02:34.722Z,3.00
2022-10-19T16:05:01.090Z,2.47
2022-10-19T16:07:29.179Z,2.03
2022-10-19T16:09:55.675Z,3.60
2022-10-19T16:12:22.611Z,3.30
2022-10-19T16:14:49.095Z,1.90
2022-10-19T16:17:15.716Z,2.20
2022-10-19T16:19:42.440Z,4.77
2022-10-19T16:22:09.058Z,1.87
2022-10-19T16:24:35.420Z,3.93
2022-10-19T16:27:01.941Z,3.47
2022-10-19T16:29:29.163Z,3.77
2022-10-19T16:31:55.638Z,4.00
2022-10-19T16:34:22.065Z,5.03
2022-10-19T16:36:48.503Z,4.77
2022-10-19T16:39:14.890Z,3.23
2022-10-19T16:41:43.608Z,4.07
2022-10-19T16:44:11.743Z,4.47
2022-10-19T16:46:38.179Z,6.07
2022-10-19T16:49:04.632Z,3.17
2022-10-19T16:51:31.029Z,4.47
2022-10-19T16:53:57.782Z,5.50
2022-10-19T16:56:25.025Z,7.13
2022-10-19T16:58:53.351Z,3.57
2022-10-19T17:01:20.159Z,4.07
2022-10-19T17:03:47.358Z,5.67
2022-10-19T17:06:14.143Z,5.83
2022-10-19T17:11:28.316Z,9.20
2022-10-19T17:13:56.167Z,7.33
2022-10-19T17:16:23.614Z,13.40
2022-10-19T17:18:50.413Z,4.73
2022-10-19T17:21:20.659Z,4.13
2022-10-19T17:23:47.085Z,4.17
2022-10-19T17:26:13.577Z,8.80
2022-10-19T17:28:40.347Z,4.75
2022-10-19T17:31:08.307Z,3.57
2022-10-19T17:33:35.558Z,4.13
2022-10-19T17:36:05.092Z,3.00
2022-10-19T17:38:31.788Z,2.83
2022-10-19T17:41:01.435Z,3.93
2022-10-19T17:43:27.864Z,3.83
2022-10-19T17:45:58.019Z,3.97
2022-10-19T17:48:24.438Z,2.93
2022-10-19T17:50:57.606Z,3.63
2022-10-19T17:53:24.077Z,8.30
2022-10-19T17:55:50.670Z,3.93
2022-10-19T17:58:17.153Z,2.40
2022-10-19T18:00:45.963Z,2.13
2022-10-19T18:03:14.873Z,4.40
2022-10-19T18:05:41.382Z,4.07
2022-10-19T18:08:10.346Z,3.80
2022-10-19T18:10:37.167Z,3.27
2022-10-19T18:13:04.463Z,3.83
2022-10-19T18:15:30.964Z,4.27
2022-10-19T18:17:58.470Z,3.90
2022-10-19T18:20:24.894Z,3.73
2022-10-19T18:22:51.301Z,3.50
2022-10-19T18:25:21.746Z,3.83
2022-10-19T18:27:57.259Z,4.63
2022-10-19T18:30:23.673Z,6.13
2022-10-19T18:32:50.122Z,4.60
2022-10-19T18:35:16.735Z,6.13
2022-10-19T18:37:43.137Z,5.33
2022-10-19T18:40:10.563Z,2.83
2022-10-19T18:42:37.333Z,5.07
2022-10-19T18:45:04.341Z,4.17
2022-10-19T18:47:34.010Z,4.50
2022-10-19T18:50:00.405Z,2.93
2022-10-19T18:52:26.793Z,4.17
2022-10-19T18:54:53.216Z,3.10
2022-10-19T18:57:20.757Z,5.67
2022-10-19T18:59:47.439Z,2.03
2022-10-19T19:02:22.293Z,5.70
2022-10-19T19:04:52.048Z,3.20
2022-10-19T19:07:19.522Z,4.03
2022-10-19T19:09:45.973Z,3.00
2022-10-19T19:12:12.528Z,3.20
2022-10-19T19:14:39.171Z,4.90
2022-10-19T19:17:05.655Z,3.80
2022-10-19T19:19:32.136Z,3.83
2022-10-19T19:22:05.130Z,3.73
2022-10-19T19:24:35.471Z,4.87
2022-10-19T19:27:01.885Z,2.83
2022-10-19T19:29:30.424Z,3.63
2022-10-19T19:31:56.840Z,6.80
2022-10-19T19:34:23.312Z,3.20
2022-10-19T19:36:49.969Z,6.40
2022-10-19T19:39:18.825Z,5.23
2022-10-19T19:41:45.383Z,2.77
2022-10-19T19:44:19.350Z,3.33
2022-10-19T19:46:45.774Z,3.53
2022-10-19T19:49:12.478Z,4.33
2022-10-19T19:51:38.918Z,3.03
2022-10-19T19:54:05.640Z,4.77
2022-10-19T19:56:32.118Z,3.93
2022-10-19T19:58:59.186Z,9.03
2022-10-19T20:01:26.606Z,4.50
2022-10-19T20:03:53.165Z,2.83
2022-10-19T20:06:22.269Z,3.03
2022-10-19T20:08:51.664Z,2.97
2022-10-19T20:11:18.174Z,4.07
2022-10-19T20:13:45.359Z,5.07
2022-10-19T20:16:16.272Z,6.83
2022-10-19T20:18:47.046Z,5.17
2022-10-19T20:21:13.722Z,2.63
2022-10-19T20:23:40.132Z,3.23
2022-10-19T20:26:06.708Z,3.37
2022-10-19T20:28:33.441Z,2.60
2022-10-19T20:31:04.260Z,3.57
2022-10-19T20:33:31.582Z,2.40
2022-10-19T20:36:02.207Z,3.50
2022-10-19T20:38:28.524Z,3.07
2022-10-19T20:40:55.753Z,2.80
2022-10-19T20:43:22.288Z,2.60
2022-10-19T20:45:48.754Z,3.80
2022-10-19T20:48:15.346Z,2.13
2022-10-19T20:50:41.818Z,3.60
2022-10-19T20:53:09.568Z,5.83
2022-10-19T20:55:35.998Z,3.13
2022-10-19T20:58:02.434Z,3.70
2022-10-19T21:00:28.875Z,3.50
2022-10-19T21:02:55.360Z,4.53
2022-10-19T21:05:21.806Z,3.47
2022-10-19T21:07:48.205Z,5.93
2022-10-19T21:10:14.638Z,4.40
2022-10-19T21:12:40.996Z,3.20
2022-10-19T21:15:07.678Z,4.70
2022-10-19T21:17:34.046Z,5.17
2022-10-19T21:20:00.413Z,6.77
2022-10-19T21:22:26.800Z,3.27
2022-10-19T21:24:53.204Z,3.17
2022-10-19T21:27:19.568Z,3.40
2022-10-19T21:29:45.935Z,2.67
2022-10-19T21:32:12.304Z,2.00
2022-10-19T21:34:38.629Z,2.60
2022-10-19T21:37:05.041Z,3.50
2022-10-19T21:39:31.427Z,3.60
2022-10-19T21:42:00.564Z,6.73
2022-10-19T21:44:27.013Z,3.33
2022-10-19T21:46:53.406Z,7.33
2022-10-19T21:49:19.737Z,4.70
2022-10-19T21:51:50.840Z,2.23
2022-10-19T21:54:19.047Z,3.07
2022-10-19T21:56:45.767Z,5.57
2022-10-19T21:59:12.426Z,3.67
2022-10-19T22:01:41.375Z,2.70
2022-10-19T22:04:10.831Z,2.90
2022-10-19T22:06:37.172Z,2.87
2022-10-19T22:09:05.241Z,2.43
2022-10-19T22:11:31.635Z,5.00
2022-10-19T22:13:59.395Z,2.77
2022-10-19T22:16:26.145Z,2.53
2022-10-19T22:18:52.945Z,2.90
2022-10-19T22:21:23.807Z,3.23
2022-10-19T22:23:51.640Z,4.13
2022-10-19T22:26:19.404Z,3.87
2022-10-19T22:28:45.776Z,2.90
2022-10-19T22:31:12.239Z,6.07
2022-10-19T22:33:38.714Z,2.37
2022-10-19T22:36:06.363Z,6.37
2022-10-19T22:38:33.279Z,3.60
2022-10-19T22:40:59.626Z,1.77
2022-10-19T22:43:25.954Z,4.07
2022-10-19T22:45:52.286Z,9.33
2022-10-19T22:48:19.218Z,2.60
2022-10-19T22:50:45.888Z,3.20
2022-10-19T22:53:12.733Z,3.00
2022-10-19T22:55:39.147Z,3.67
2022-10-19T22:58:06.540Z,1.57
2022-10-19T23:00:32.895Z,3.67
2022-10-19T23:02:59.291Z,4.00
2022-10-19T23:05:25.684Z,4.00
2022-10-19T23:07:52.025Z,2.23
2022-10-19T23:10:18.420Z,3.43
2022-10-19T23:12:48.418Z,2.97
2022-10-19T23:15:14.954Z,7.17
2022-10-19T23:17:41.282Z,4.63
2022-10-19T23:20:07.873Z,2.90
2022-10-19T23:22:34.225Z,6.03
2022-10-19T23:25:00.571Z,2.30
2022-10-19T23:27:26.931Z,1.77
2022-10-19T23:29:53.263Z,6.20
2022-10-19T23:32:19.612Z,5.27
2022-10-19T23:34:48.340Z,4.40
2022-10-19T23:37:14.971Z,2.53
2022-10-19T23:39:41.287Z,3.83
2022-10-19T23:42:07.626Z,8.37
2022-10-19T23:44:33.987Z,2.73
2022-10-19T23:47:00.366Z,9.03
2022-10-19T23:49:26.715Z,4.23
2022-10-19T23:51:53.038Z,3.00
2022-10-19T23:54:19.366Z,3.57
2022-10-19T23:56:45.722Z,6.27
2022-10-19T23:59:12.089Z,2.70
